createdAt,value
2024-01-12T00:00:01.859Z,11.6
2024-01-12T00:01:18.964Z,11.2
2024-01-12T00:02:36.069Z,10.5
2024-01-12T00:03:53.175Z,12.7
2024-01-12T00:05:10.280Z,10.7
2024-01-12T00:06:27.385Z,12
2024-01-12T00:07:44.490Z,10.4
2024-01-12T00:09:01.595Z,10.7
2024-01-12T00:10:18.700Z,12.4
2024-01-12T00:11:34.821Z,11.2
2024-01-12T00:12:51.927Z,11.3
2024-01-12T00:14:09.033Z,11.4
2024-01-12T00:15:26.138Z,10.7
2024-01-12T00:16:43.243Z,12.1
2024-01-12T00:18:00.348Z,11.6
2024-01-12T00:19:17.454Z,10.7
2024-01-12T00:20:34.559Z,10.2
2024-01-12T00:21:51.664Z,11.9
2024-01-12T00:23:08.770Z,12.7
2024-01-12T00:24:25.875Z,11.4
2024-01-12T00:25:42.980Z,11.3
2024-01-12T00:27:00.085Z,12
2024-01-12T00:28:16.206Z,11.5
2024-01-12T00:29:33.312Z,11.7
2024-01-12T00:30:50.417Z,11.6
2024-01-12T00:32:07.522Z,12.2
2024-01-12T00:33:24.627Z,10.4
2024-01-12T00:34:41.732Z,10.4
2024-01-12T00:35:58.837Z,13.7
2024-01-12T00:37:15.943Z,12.2
2024-01-12T00:38:33.048Z,11.7
2024-01-12T00:39:50.153Z,11.9
2024-01-12T00:41:07.259Z,13.2
2024-01-12T00:42:24.364Z,11.4
2024-01-12T00:43:41.469Z,12.3
2024-01-12T00:44:57.591Z,11.7
2024-01-12T00:46:14.696Z,12.3
2024-01-12T00:47:31.801Z,12.5
2024-01-12T00:48:48.907Z,11.5
2024-01-12T00:50:06.012Z,12.3
2024-01-12T00:51:23.117Z,12.9
2024-01-12T00:52:40.223Z,11.7
2024-01-12T00:53:57.328Z,13.5
2024-01-12T00:55:14.433Z,11.6
2024-01-12T00:56:31.538Z,12
2024-01-12T00:57:48.643Z,13.7
2024-01-12T00:59:05.749Z,11.5
2024-01-12T01:00:22.854Z,12.4
2024-01-12T01:01:38.975Z,11.4
2024-01-12T01:02:56.080Z,11.2
2024-01-12T01:04:13.186Z,11.5
2024-01-12T01:05:30.291Z,12.1
2024-01-12T01:06:47.396Z,11.2
2024-01-12T01:08:04.501Z,11.3
2024-01-12T01:09:21.606Z,11.9
2024-01-12T01:10:38.712Z,12
2024-01-12T01:11:55.817Z,11.2
2024-01-12T01:13:12.922Z,11.2
2024-01-12T01:14:30.027Z,11.1
2024-01-12T01:15:47.132Z,11.5
2024-01-12T01:17:04.237Z,11.7
2024-01-12T01:18:20.358Z,11.6
2024-01-12T01:19:37.463Z,11.4
2024-01-12T01:20:54.568Z,9.8
2024-01-12T01:22:11.674Z,9.2
2024-01-12T01:23:28.779Z,11.8
2024-01-12T01:24:45.883Z,11.6
2024-01-12T01:26:02.988Z,9.9
2024-01-12T01:27:20.094Z,10.8
2024-01-12T01:28:37.200Z,10.5
2024-01-12T01:29:54.305Z,9.7
2024-01-12T01:31:11.410Z,9.8
2024-01-12T01:32:28.516Z,10.3
2024-01-12T01:33:45.621Z,11.4
2024-01-12T01:35:01.742Z,11.1
2024-01-12T01:36:18.847Z,10.1
2024-01-12T01:37:35.953Z,11
2024-01-12T01:38:53.058Z,9.8
2024-01-12T01:40:10.163Z,9.6
2024-01-12T01:41:27.268Z,11.8
2024-01-12T01:42:44.373Z,11.9
2024-01-12T01:44:01.478Z,9.8
2024-01-12T01:45:18.583Z,11.6
2024-01-12T01:46:35.689Z,10.3
2024-01-12T01:47:52.794Z,10.3
2024-01-12T01:49:09.899Z,11.8
2024-01-12T01:50:27.004Z,9.5
2024-01-12T01:51:43.125Z,10.3
2024-01-12T01:53:00.230Z,11.7
2024-01-12T01:54:17.335Z,10.5
2024-01-12T01:55:34.441Z,9.6
2024-01-12T01:56:51.546Z,10.2
2024-01-12T01:58:08.651Z,10.9
2024-01-12T01:59:25.756Z,11.8
2024-01-12T02:00:42.861Z,10.3
2024-01-12T02:01:59.967Z,10.7
2024-01-12T02:03:17.072Z,12.1
2024-01-12T02:04:34.177Z,11.2
2024-01-12T02:05:51.282Z,10.8
2024-01-12T02:07:08.387Z,11.2
2024-01-12T02:08:24.509Z,12.9
2024-01-12T02:09:41.614Z,10
2024-01-12T02:10:58.719Z,13.4
2024-01-12T02:12:15.824Z,13.3
2024-01-12T02:13:32.929Z,11.7
2024-01-12T02:14:50.034Z,13.5
2024-01-12T02:16:07.140Z,12.7
2024-01-12T02:17:24.245Z,10.9
2024-01-12T02:18:41.350Z,12.3
2024-01-12T02:19:58.456Z,12.2
2024-01-12T02:21:15.561Z,11.9
2024-01-12T02:22:32.666Z,12.1
2024-01-12T02:23:49.771Z,11.9
2024-01-12T02:25:05.892Z,12.5
2024-01-12T02:26:22.997Z,13.6
2024-01-12T02:27:40.102Z,11.1
2024-01-12T02:28:57.208Z,14.1
2024-01-12T02:30:14.313Z,11.9
2024-01-12T02:31:31.418Z,12
2024-01-12T02:32:48.523Z,12.9
2024-01-12T02:34:05.628Z,11.9
2024-01-12T02:35:22.733Z,13
2024-01-12T02:36:39.839Z,11.3
2024-01-12T02:37:56.944Z,10.5
2024-01-12T02:39:14.049Z,12.5
2024-01-12T02:40:31.156Z,11.6
2024-01-12T02:41:47.277Z,11.2
2024-01-12T02:43:04.382Z,11
2024-01-12T02:44:21.487Z,11.8
2024-01-12T02:45:38.592Z,12
2024-01-12T02:46:55.697Z,11.6
2024-01-12T02:48:12.802Z,12.8
2024-01-12T02:49:29.907Z,12.2
2024-01-12T02:50:47.013Z,12.1
2024-01-12T02:52:04.118Z,11.7
2024-01-12T02:53:21.223Z,12.3
2024-01-12T02:54:38.328Z,12
2024-01-12T02:55:55.433Z,12
2024-01-12T02:57:12.538Z,11.9
2024-01-12T02:58:28.659Z,12.4
2024-01-12T02:59:45.765Z,11.8
2024-01-12T03:01:02.870Z,11.9
2024-01-12T03:02:19.975Z,12.7
2024-01-12T03:03:37.080Z,12.6
2024-01-12T03:04:54.185Z,12
2024-01-12T03:06:11.290Z,12.4
2024-01-12T03:07:28.396Z,13.1
2024-01-12T03:08:45.501Z,13.5
2024-01-12T03:10:02.606Z,13
2024-01-12T03:11:19.711Z,12.4
2024-01-12T03:12:36.816Z,12.8
2024-01-12T03:13:53.921Z,12.8
2024-01-12T03:15:10.043Z,12.6
2024-01-12T03:16:27.148Z,13.2
2024-01-12T03:17:44.253Z,13.4
2024-01-12T03:19:01.359Z,13.2
2024-01-12T03:20:18.464Z,13.9
2024-01-12T03:21:35.570Z,13.6
2024-01-12T03:22:52.675Z,13.6
2024-01-12T03:24:09.781Z,13.9
2024-01-12T03:25:26.886Z,14.3
2024-01-12T03:26:43.991Z,13.4
2024-01-12T03:28:01.096Z,14
2024-01-12T03:29:18.201Z,14
2024-01-12T03:30:35.306Z,13.3
2024-01-12T03:31:51.428Z,13.6
2024-01-12T03:33:08.533Z,14.4
2024-01-12T03:34:25.638Z,14.2
2024-01-12T03:35:42.744Z,14.2
2024-01-12T03:36:59.850Z,14.1
2024-01-12T03:38:16.955Z,14.5
2024-01-12T03:39:34.060Z,16.8
2024-01-12T03:40:51.165Z,13.1
2024-01-12T03:42:08.271Z,16.5
2024-01-12T03:43:25.376Z,16.4
2024-01-12T03:44:42.481Z,13.9
2024-01-12T03:45:59.587Z,16
2024-01-12T03:47:16.692Z,15.2
2024-01-12T03:48:32.813Z,15.1
2024-01-12T03:49:49.918Z,15.9
2024-01-12T03:51:07.023Z,15.5
2024-01-12T03:52:24.128Z,14.3
2024-01-12T03:53:41.233Z,15.3
2024-01-12T03:54:58.339Z,13.9
2024-01-12T03:56:15.444Z,14.7
2024-01-12T03:57:32.549Z,16.2
2024-01-12T03:58:49.654Z,14.8
2024-01-12T04:00:06.760Z,16.9
2024-01-12T04:01:23.865Z,14.9
2024-01-12T04:02:40.970Z,14.5
2024-01-12T04:03:58.075Z,15.6
2024-01-12T04:05:14.196Z,14.1
2024-01-12T04:06:31.301Z,15.3
2024-01-12T04:07:48.407Z,13.5
2024-01-12T04:09:05.512Z,14
2024-01-12T04:10:22.617Z,16
2024-01-12T04:11:39.722Z,15.7
2024-01-12T04:12:55.844Z,15.3
2024-01-12T04:14:12.949Z,15.4
2024-01-12T04:15:30.054Z,16.3
2024-01-12T04:16:47.159Z,16.5
2024-01-12T04:18:04.264Z,16
2024-01-12T04:19:21.370Z,15.1
2024-01-12T04:20:38.475Z,15.8
2024-01-12T04:21:55.580Z,15.7
2024-01-12T04:23:12.686Z,16.6
2024-01-12T04:24:29.791Z,14.9
2024-01-12T04:25:46.896Z,16.2
2024-01-12T04:27:04.001Z,14.3
2024-01-12T04:28:21.107Z,14.1
2024-01-12T04:29:37.228Z,18
2024-01-12T04:30:54.333Z,17.3
2024-01-12T04:32:11.439Z,15.6
2024-01-12T04:33:28.544Z,17.4
2024-01-12T04:34:45.650Z,16.4
2024-01-12T04:36:02.755Z,17.4
2024-01-12T04:37:19.860Z,18
2024-01-12T04:38:36.965Z,15.9
2024-01-12T04:39:54.071Z,18.6
2024-01-12T04:41:11.176Z,19.3
2024-01-12T04:42:28.282Z,16.7
2024-01-12T04:43:45.387Z,19.5
2024-01-12T04:45:02.492Z,17.7
2024-01-12T04:46:18.614Z,17.4
2024-01-12T04:47:35.719Z,17.6
2024-01-12T04:48:52.824Z,17.4
2024-01-12T04:50:09.930Z,16.2
2024-01-12T04:51:27.035Z,16.3
2024-01-12T04:52:44.140Z,16.7
2024-01-12T04:54:01.246Z,19.3
2024-01-12T04:55:18.351Z,16.7
2024-01-12T04:56:35.457Z,17
2024-01-12T04:57:52.562Z,16.7
2024-01-12T04:59:09.667Z,16.7
2024-01-12T05:00:26.772Z,18.8
2024-01-12T05:01:43.877Z,18.7
2024-01-12T05:02:59.999Z,16.6
2024-01-12T05:04:17.104Z,19
2024-01-12T05:05:34.209Z,18.3
2024-01-12T05:06:51.315Z,18.2
2024-01-12T05:08:08.420Z,17.7
2024-01-12T05:09:25.525Z,18.6
2024-01-12T05:10:42.630Z,16.7
2024-01-12T05:11:59.735Z,17.7
2024-01-12T05:13:16.840Z,18.5
2024-01-12T05:14:33.945Z,19.6
2024-01-12T05:15:51.051Z,21.5
2024-01-12T05:17:08.156Z,17.5
2024-01-12T05:18:25.261Z,17.5
2024-01-12T05:19:41.382Z,17.8
2024-01-12T05:20:58.487Z,18.3
2024-01-12T05:22:15.592Z,18.4
2024-01-12T05:23:32.697Z,18.4
2024-01-12T05:24:49.803Z,15.9
2024-01-12T05:26:06.908Z,17.9
2024-01-12T05:27:24.013Z,17.7
2024-01-12T05:28:41.118Z,17.4
2024-01-12T05:29:58.223Z,16.8
2024-01-12T05:31:15.329Z,16
2024-01-12T05:32:32.434Z,16.7
2024-01-12T05:33:49.539Z,16.7
2024-01-12T05:35:06.644Z,17.4
2024-01-12T05:36:22.765Z,15.7
2024-01-12T05:37:39.870Z,17.1
2024-01-12T05:38:56.976Z,18.1
2024-01-12T05:40:14.082Z,18.5
2024-01-12T05:41:31.187Z,17.7
2024-01-12T05:42:48.292Z,17.1
2024-01-12T05:44:05.397Z,18
2024-01-12T05:45:22.503Z,16
2024-01-12T05:46:39.608Z,20
2024-01-12T05:47:56.713Z,20
2024-01-12T05:49:13.818Z,15.2
2024-01-12T05:50:30.923Z,15.1
2024-01-12T05:51:48.029Z,15.5
2024-01-12T05:53:04.150Z,14.1
2024-01-12T05:54:21.255Z,16.1
2024-01-12T05:55:38.360Z,14.6
2024-01-12T05:56:55.465Z,15.9
2024-01-12T05:58:12.570Z,14.2
2024-01-12T05:59:29.675Z,14.1
2024-01-12T06:00:46.781Z,14.4
2024-01-12T06:02:03.886Z,16.5
2024-01-12T06:03:20.991Z,15.1
2024-01-12T06:04:38.096Z,15
2024-01-12T06:05:55.201Z,15.7
2024-01-12T06:07:12.307Z,15.7
2024-01-12T06:08:29.412Z,15.8
2024-01-12T06:09:45.533Z,16.9
2024-01-12T06:11:02.638Z,16.8
2024-01-12T06:12:19.743Z,14.6
2024-01-12T06:13:36.849Z,16.9
2024-01-12T06:14:53.954Z,16.8
2024-01-12T06:16:11.060Z,17.2
2024-01-12T06:17:28.165Z,18.7
2024-01-12T06:18:45.270Z,17.5
2024-01-12T06:20:02.375Z,16.8
2024-01-12T06:21:19.480Z,18.2
2024-01-12T06:22:36.586Z,19.3
2024-01-12T06:23:53.691Z,18.8
2024-01-12T06:25:10.796Z,18.2
2024-01-12T06:26:26.917Z,18.7
2024-01-12T06:27:44.023Z,18.4
2024-01-12T06:29:01.128Z,18.6
2024-01-12T06:30:18.233Z,19.7
2024-01-12T06:31:35.338Z,18.1
2024-01-12T06:32:52.443Z,17.9
2024-01-12T06:34:09.549Z,17.1
2024-01-12T06:35:26.654Z,18.4
2024-01-12T06:36:43.759Z,21.3
2024-01-12T06:38:00.864Z,19.7
2024-01-12T06:39:17.969Z,18.5
2024-01-12T06:40:35.074Z,18.4
2024-01-12T06:41:52.179Z,20.2
2024-01-12T06:43:08.301Z,19.6
2024-01-12T06:44:25.406Z,21.3
2024-01-12T06:45:42.511Z,20
2024-01-12T06:46:59.616Z,21.2
2024-01-12T06:48:16.722Z,21.1
2024-01-12T06:49:33.827Z,18.7
2024-01-12T06:50:50.932Z,19.7
2024-01-12T06:52:08.037Z,20.3
2024-01-12T06:53:25.142Z,20.8
2024-01-12T06:54:42.247Z,20.2
2024-01-12T06:55:59.353Z,21.1
2024-01-12T06:57:16.458Z,21.4
2024-01-12T06:58:33.563Z,19.3
2024-01-12T06:59:49.684Z,22
2024-01-12T07:01:06.790Z,22.4
2024-01-12T07:02:23.895Z,20.8
2024-01-12T07:03:41.000Z,28.2
2024-01-12T07:04:58.105Z,29
2024-01-12T07:06:15.210Z,28.3
2024-01-12T07:07:32.316Z,47.2
2024-01-12T07:08:49.421Z,39.9
2024-01-12T07:10:06.527Z,20.9
2024-01-12T07:11:23.632Z,25
2024-01-12T07:12:40.738Z,22
2024-01-12T07:13:57.843Z,19.2
2024-01-12T07:15:14.948Z,21.1
2024-01-12T07:16:31.069Z,19.9
2024-01-12T07:17:48.174Z,19.9
2024-01-12T07:19:05.280Z,22.7
2024-01-12T07:20:22.385Z,22
2024-01-12T07:21:39.490Z,21.2
2024-01-12T07:22:56.595Z,22.8
2024-01-12T07:24:13.701Z,23.1
2024-01-12T07:25:30.806Z,21.7
2024-01-12T07:26:47.911Z,21.1
2024-01-12T07:28:05.016Z,21.2
2024-01-12T07:29:22.122Z,22.8
2024-01-12T07:30:39.227Z,24.6
2024-01-12T07:31:56.332Z,21.5
2024-01-12T07:33:12.453Z,21.7
2024-01-12T07:34:29.558Z,20.2
2024-01-12T07:35:46.663Z,21.8
2024-01-12T07:37:03.769Z,22.2
2024-01-12T07:38:20.874Z,19.8
2024-01-12T07:39:37.979Z,25.8
2024-01-12T07:40:55.084Z,21.9
2024-01-12T07:42:12.190Z,18.8
2024-01-12T07:43:29.295Z,19.3
2024-01-12T07:44:46.400Z,21.2
2024-01-12T07:46:03.505Z,20.1
2024-01-12T07:47:20.610Z,20
2024-01-12T07:48:37.716Z,19.9
2024-01-12T07:49:53.837Z,19.8
2024-01-12T07:51:10.942Z,20.9
2024-01-12T07:52:28.047Z,21.7
2024-01-12T07:53:45.153Z,23.9
2024-01-12T07:55:02.258Z,21.4
2024-01-12T07:56:19.363Z,22.1
2024-01-12T07:57:36.469Z,22.5
2024-01-12T07:58:53.574Z,22.2
2024-01-12T08:00:10.679Z,22.1
2024-01-12T08:01:27.785Z,22.9
2024-01-12T08:02:44.891Z,24.7
2024-01-12T08:04:01.996Z,24.2
2024-01-12T08:05:19.102Z,24.8
2024-01-12T08:06:35.223Z,23.7
2024-01-12T08:07:52.328Z,23
2024-01-12T08:09:09.434Z,26.4
2024-01-12T08:10:26.539Z,32.2
2024-01-12T08:11:43.644Z,28.6
2024-01-12T08:13:00.749Z,28.4
2024-01-12T08:14:17.855Z,31.2
2024-01-12T08:15:34.960Z,28.5
2024-01-12T08:16:52.065Z,24.5
2024-01-12T08:18:09.171Z,22.4
2024-01-12T08:19:26.276Z,24
2024-01-12T08:20:43.381Z,25.7
2024-01-12T08:22:00.486Z,27.6
2024-01-12T08:23:16.607Z,67.2
2024-01-12T08:24:33.712Z,49.1
2024-01-12T08:25:50.818Z,46
2024-01-12T08:27:07.923Z,44.8
2024-01-12T08:28:25.029Z,41.5
2024-01-12T08:29:42.134Z,30
2024-01-12T08:30:58.256Z,32.8
2024-01-12T08:32:15.361Z,22.5
2024-01-12T08:33:32.466Z,23.1
2024-01-12T08:34:49.569Z,21.6
2024-01-12T08:36:06.674Z,24.6
2024-01-12T08:37:23.780Z,25.8
2024-01-12T08:38:40.885Z,22
2024-01-12T08:39:57.990Z,23.8
2024-01-12T08:41:15.095Z,33.6
2024-01-12T08:42:32.200Z,29.2
2024-01-12T08:43:49.305Z,26.7
2024-01-12T08:45:06.410Z,22.5
2024-01-12T08:46:23.515Z,20.4
2024-01-12T08:47:39.636Z,20.9
2024-01-12T08:48:56.742Z,21.3
2024-01-12T08:50:13.847Z,20.6
2024-01-12T08:51:30.952Z,22.7
2024-01-12T08:52:48.057Z,24.5
2024-01-12T08:54:05.162Z,21.9
2024-01-12T08:55:22.267Z,20.5
2024-01-12T08:56:39.372Z,20.5
2024-01-12T08:57:56.477Z,22.1
2024-01-12T08:59:13.583Z,21.1
2024-01-12T09:00:30.688Z,25.6
2024-01-12T09:01:47.793Z,24.3
2024-01-12T09:03:04.898Z,57.2
2024-01-12T09:04:21.019Z,36.3
2024-01-12T09:05:38.124Z,31.2
2024-01-12T09:06:55.230Z,24
2024-01-12T09:08:12.335Z,26.2
2024-01-12T09:09:29.440Z,28.7
2024-01-12T09:10:46.545Z,29
2024-01-12T09:12:03.651Z,23.4
2024-01-12T09:13:20.756Z,22
2024-01-12T09:14:37.861Z,22.5
2024-01-12T09:15:54.966Z,32.4
2024-01-12T09:17:12.071Z,32
2024-01-12T09:18:29.177Z,25.3
2024-01-12T09:19:46.282Z,22
2024-01-12T09:21:02.403Z,25.7
2024-01-12T09:22:19.509Z,23.6
2024-01-12T09:23:36.614Z,23
2024-01-12T09:24:53.719Z,22.5
2024-01-12T09:26:10.824Z,23.3
2024-01-12T09:27:27.929Z,25.3
2024-01-12T09:28:45.034Z,29.3
2024-01-12T09:30:02.139Z,26.8
2024-01-12T09:31:19.245Z,28
2024-01-12T09:32:36.350Z,26.2
2024-01-12T09:33:53.455Z,25
2024-01-12T09:35:10.561Z,22.4
2024-01-12T09:36:27.666Z,28.4
2024-01-12T09:37:43.787Z,28.7
2024-01-12T09:39:00.892Z,28
2024-01-12T09:40:17.997Z,27.2
2024-01-12T09:41:35.102Z,28
2024-01-12T09:42:52.207Z,25.4
2024-01-12T09:44:09.312Z,23.6
2024-01-12T09:45:26.417Z,19.6
2024-01-12T09:46:43.523Z,19.8
2024-01-12T09:48:00.628Z,21.4
2024-01-12T09:49:17.733Z,20.8
2024-01-12T09:50:34.838Z,21
2024-01-12T09:51:51.943Z,20.2
2024-01-12T09:53:09.048Z,20
2024-01-12T09:54:25.169Z,20.7
2024-01-12T09:55:42.275Z,22.5
2024-01-12T09:56:59.380Z,24.2
2024-01-12T09:58:16.485Z,23
2024-01-12T09:59:33.591Z,23.8
2024-01-12T10:00:50.696Z,23.4
2024-01-12T10:02:07.801Z,24.9
2024-01-12T10:03:24.906Z,28.9
2024-01-12T10:04:42.011Z,28.1
2024-01-12T10:05:59.117Z,37.3
2024-01-12T10:07:16.222Z,28.2
2024-01-12T10:08:33.327Z,25.7
2024-01-12T10:09:50.432Z,26.7
2024-01-12T10:11:06.553Z,27.9
2024-01-12T10:12:23.657Z,26
2024-01-12T10:13:40.762Z,29.5
2024-01-12T10:14:57.867Z,25.1
2024-01-12T10:16:14.972Z,30
2024-01-12T10:17:32.078Z,30.1
2024-01-12T10:18:49.183Z,24.9
2024-01-12T10:20:06.288Z,21.5
2024-01-12T10:21:23.394Z,22
2024-01-12T10:22:40.499Z,23
2024-01-12T10:23:57.604Z,24.1
2024-01-12T10:25:14.709Z,26.1
2024-01-12T10:26:31.814Z,24.2
2024-01-12T10:27:47.936Z,27.1
2024-01-12T10:29:05.041Z,27.8
2024-01-12T10:30:22.147Z,22.4
2024-01-12T10:31:39.252Z,19.5
2024-01-12T10:32:56.357Z,21.6
2024-01-12T10:34:13.462Z,20.2
2024-01-12T10:35:30.568Z,31
2024-01-12T10:36:47.673Z,20.5
2024-01-12T10:38:04.778Z,22.2
2024-01-12T10:39:21.883Z,36.2
2024-01-12T10:40:38.989Z,24.9
2024-01-12T10:41:56.094Z,25.6
2024-01-12T10:43:13.199Z,23.7
2024-01-12T10:44:29.320Z,22.5
2024-01-12T10:45:46.426Z,22.8
2024-01-12T10:47:03.531Z,21.8
2024-01-12T10:48:20.636Z,19.7
2024-01-12T10:49:37.741Z,20.7
2024-01-12T10:50:54.847Z,21.3
2024-01-12T10:52:11.952Z,25.6
2024-01-12T10:53:29.057Z,13.6
2024-01-12T10:54:46.162Z,14.3
2024-01-12T10:56:03.267Z,14.7
2024-01-12T10:57:20.372Z,15
2024-01-12T10:58:37.477Z,16.6
2024-01-12T10:59:54.582Z,23.7
2024-01-12T11:01:10.703Z,23.1
2024-01-12T11:02:27.808Z,17.6
2024-01-12T11:03:44.913Z,19.8
2024-01-12T11:05:02.018Z,18.4
2024-01-12T11:06:19.123Z,17.8
2024-01-12T11:07:36.229Z,16.1
2024-01-12T11:08:53.334Z,19.7
2024-01-12T11:10:10.439Z,25.7
2024-01-12T11:11:27.544Z,20.6
2024-01-12T11:12:44.649Z,20.9
2024-01-12T11:14:01.755Z,18.3
2024-01-12T11:15:18.860Z,17.5
2024-01-12T11:16:35.965Z,21.2
2024-01-12T11:17:52.086Z,20.2
2024-01-12T11:19:09.191Z,38.5
2024-01-12T11:20:26.296Z,26.2
2024-01-12T11:21:43.402Z,22.6
2024-01-12T11:23:00.507Z,23.4
2024-01-12T11:24:17.612Z,17.9
2024-01-12T11:25:34.717Z,15.9
2024-01-12T11:26:51.822Z,16.8
2024-01-12T11:28:08.927Z,15
2024-01-12T11:29:26.032Z,18.7
2024-01-12T11:30:43.137Z,18.1
2024-01-12T11:32:00.243Z,17.4
2024-01-12T11:33:17.348Z,17.9
2024-01-12T11:34:33.469Z,16.3
2024-01-12T11:35:50.575Z,17.5
2024-01-12T11:37:07.680Z,15.7
2024-01-12T11:38:24.785Z,15.5
2024-01-12T11:39:41.890Z,16.1
2024-01-12T11:40:58.995Z,15.8
2024-01-12T11:42:16.100Z,15.9
2024-01-12T11:43:33.205Z,15.5
2024-01-12T11:44:50.310Z,16.9
2024-01-12T11:46:07.415Z,17.5
2024-01-12T11:47:24.520Z,16.7
2024-01-12T11:48:41.625Z,18.2
2024-01-12T11:49:58.730Z,18.1
2024-01-12T11:51:14.851Z,17.8
2024-01-12T11:52:31.956Z,16.7
2024-01-12T11:53:49.060Z,15.7
2024-01-12T11:55:06.165Z,16.7
2024-01-12T11:56:23.270Z,17.2
2024-01-12T11:57:40.375Z,15.6
2024-01-12T11:58:57.480Z,16.8
2024-01-12T12:00:14.585Z,17.2
2024-01-12T12:01:31.690Z,17.4
2024-01-12T12:02:48.796Z,17.1
2024-01-12T12:04:05.901Z,18.5
2024-01-12T12:05:23.006Z,17.3
2024-01-12T12:06:40.111Z,20
2024-01-12T12:07:56.232Z,17.2
2024-01-12T12:09:13.337Z,16
2024-01-12T12:10:30.442Z,18.4
2024-01-12T12:11:47.546Z,16.2
2024-01-12T12:13:04.651Z,15.9
2024-01-12T12:14:21.756Z,16.8
2024-01-12T12:15:38.861Z,15.9
2024-01-12T12:16:55.966Z,17.4
2024-01-12T12:18:13.071Z,18.6
2024-01-12T12:19:30.176Z,18.4
2024-01-12T12:20:47.281Z,25.7
2024-01-12T12:22:04.385Z,21.8
2024-01-12T12:23:21.490Z,21
2024-01-12T12:24:37.611Z,25.2
2024-01-12T12:25:54.716Z,24.3
2024-01-12T12:27:11.821Z,25
2024-01-12T12:28:28.926Z,25.4
2024-01-12T12:29:46.031Z,24
2024-01-12T12:31:03.136Z,23
2024-01-12T12:32:20.241Z,23
2024-01-12T12:33:37.346Z,20.8
2024-01-12T12:34:54.451Z,24.1
2024-01-12T12:36:11.556Z,29.3
2024-01-12T12:37:28.660Z,25.6
2024-01-12T12:38:45.765Z,21.2
2024-01-12T12:40:02.870Z,22.6
2024-01-12T12:41:18.991Z,22.6
2024-01-12T12:42:36.096Z,22.4
2024-01-12T12:43:53.201Z,24
2024-01-12T12:45:10.306Z,25.3
2024-01-12T12:46:27.411Z,25.7
2024-01-12T12:47:44.516Z,24.1
2024-01-12T12:49:00.637Z,21.9
2024-01-12T12:50:17.742Z,26.5
2024-01-12T12:51:34.847Z,27.1
2024-01-12T12:52:51.952Z,23.1
2024-01-12T12:54:09.057Z,26.3
2024-01-12T12:55:26.162Z,38.6
2024-01-12T12:56:43.267Z,34.3
2024-01-12T12:58:00.372Z,30.1
2024-01-12T12:59:17.477Z,29.4
2024-01-12T13:00:34.582Z,27.9
2024-01-12T13:01:51.687Z,22.4
2024-01-12T13:03:08.792Z,24.7
2024-01-12T13:04:25.897Z,29.2
2024-01-12T13:05:42.018Z,27.9
2024-01-12T13:06:59.123Z,26.3
2024-01-12T13:08:16.228Z,24.6
2024-01-12T13:09:33.333Z,22.2
2024-01-12T13:10:50.438Z,24.8
2024-01-12T13:12:07.543Z,22.1
2024-01-12T13:13:24.648Z,22.4
2024-01-12T13:14:41.753Z,22
2024-01-12T13:15:58.858Z,22.3
2024-01-12T13:17:15.963Z,20.8
2024-01-12T13:18:33.068Z,20.1
2024-01-12T13:19:50.173Z,19.9
2024-01-12T13:21:07.278Z,19
2024-01-12T13:22:23.399Z,65.7
2024-01-12T13:23:40.504Z,20.7
2024-01-12T13:24:57.609Z,20.3
2024-01-12T13:26:14.714Z,19.1
2024-01-12T13:27:31.819Z,18.7
2024-01-12T13:28:48.924Z,18.5
2024-01-12T13:30:06.030Z,21.8
2024-01-12T13:31:23.135Z,17.2
2024-01-12T13:32:40.240Z,17.4
2024-01-12T13:33:57.345Z,17.9
2024-01-12T13:35:14.449Z,16.5
2024-01-12T13:36:31.554Z,16.9
2024-01-12T13:37:48.659Z,19.8
2024-01-12T13:39:04.780Z,24.8
2024-01-12T13:40:21.885Z,20.9
2024-01-12T13:41:38.990Z,21.5
2024-01-12T13:42:56.095Z,28.2
2024-01-12T13:44:13.200Z,22.6
2024-01-12T13:45:30.305Z,20.4
2024-01-12T13:46:47.410Z,21.1
2024-01-12T13:48:04.514Z,20.5
2024-01-12T13:49:21.620Z,19.4
2024-01-12T13:50:38.725Z,21
2024-01-12T13:51:55.830Z,19.5
2024-01-12T13:53:12.935Z,20.2
2024-01-12T13:54:30.040Z,24.5
2024-01-12T13:55:46.161Z,23.4
2024-01-12T13:57:03.266Z,25.7
2024-01-12T13:58:20.371Z,26.4
2024-01-12T13:59:37.476Z,21.5
2024-01-12T14:00:54.581Z,20.4
2024-01-12T14:02:11.686Z,21.8
2024-01-12T14:03:28.791Z,20.7
2024-01-12T14:04:45.896Z,23.4
2024-01-12T14:06:03.001Z,24.7
2024-01-12T14:07:20.106Z,21.8
2024-01-12T14:08:37.211Z,21.1
2024-01-12T14:09:54.316Z,22.2
2024-01-12T14:11:11.422Z,22.2
2024-01-12T14:12:27.543Z,24.9
2024-01-12T14:13:44.648Z,20.3
2024-01-12T14:15:01.753Z,24.2
2024-01-12T14:16:18.858Z,21.8
2024-01-12T14:17:35.963Z,20.7
2024-01-12T14:18:53.068Z,22.8
2024-01-12T14:20:10.173Z,20.1
2024-01-12T14:21:27.277Z,23.8
2024-01-12T14:22:44.383Z,22.8
2024-01-12T14:24:01.487Z,22
2024-01-12T14:25:18.592Z,21.9
2024-01-12T14:26:35.697Z,22.8
2024-01-12T14:27:52.802Z,23.6
2024-01-12T14:29:08.923Z,23.3
2024-01-12T14:30:26.028Z,22.2
2024-01-12T14:31:43.132Z,22.9
2024-01-12T14:33:00.237Z,22.2
2024-01-12T14:34:17.342Z,21.3
2024-01-12T14:35:34.447Z,19.7
2024-01-12T14:36:51.552Z,22.2
2024-01-12T14:38:08.657Z,21.6
2024-01-12T14:39:25.762Z,23.4
2024-01-12T14:40:42.867Z,20
2024-01-12T14:41:59.972Z,23.1
2024-01-12T14:43:17.076Z,23.5
2024-01-12T14:44:34.182Z,23.5
2024-01-12T14:45:50.303Z,24.8
2024-01-12T14:47:07.408Z,22.3
2024-01-12T14:48:24.512Z,22.3
2024-01-12T14:49:41.617Z,24.8
2024-01-12T14:50:58.723Z,24.6
2024-01-12T14:52:15.828Z,25.2
2024-01-12T14:53:32.933Z,26.5
2024-01-12T14:54:50.038Z,27.1
2024-01-12T14:56:07.144Z,25.5
2024-01-12T14:57:24.249Z,26.7
2024-01-12T14:58:41.354Z,28.4
2024-01-12T14:59:58.459Z,26.3
2024-01-12T15:01:15.564Z,29.1
2024-01-12T15:02:31.685Z,29.9
2024-01-12T15:03:48.790Z,24.5
2024-01-12T15:05:05.895Z,28.6
2024-01-12T15:06:23.000Z,26.5
2024-01-12T15:07:40.106Z,30.3
2024-01-12T15:08:57.211Z,29.9
2024-01-12T15:10:14.316Z,27.3
2024-01-12T15:11:31.421Z,28.1
2024-01-12T15:12:48.526Z,28.7
2024-01-12T15:14:05.631Z,24.6
2024-01-12T15:15:22.736Z,26.7
2024-01-12T15:16:39.841Z,29.3
2024-01-12T15:17:56.946Z,26.6
2024-01-12T15:19:13.067Z,26.7
2024-01-12T15:20:30.172Z,27.1
2024-01-12T15:21:47.277Z,27.9
2024-01-12T15:23:04.382Z,27.7
2024-01-12T15:24:21.487Z,29.4
2024-01-12T15:25:38.592Z,26.4
2024-01-12T15:26:55.697Z,30
2024-01-12T15:28:12.802Z,28.9
2024-01-12T15:29:29.907Z,28.7
2024-01-12T15:30:47.012Z,27.7
2024-01-12T15:32:04.117Z,28.1
2024-01-12T15:33:21.223Z,26.9
2024-01-12T15:34:38.328Z,27.3
2024-01-12T15:35:54.449Z,28.1
2024-01-12T15:37:11.554Z,28.8
2024-01-12T15:38:28.659Z,28.3
2024-01-12T15:39:45.764Z,27
2024-01-12T15:41:02.870Z,28.8
2024-01-12T15:42:19.975Z,26
2024-01-12T15:43:37.080Z,26.9
2024-01-12T15:44:54.185Z,26.1
2024-01-12T15:46:11.290Z,27.3
2024-01-12T15:47:28.396Z,26.9
2024-01-12T15:48:45.501Z,26.6
2024-01-12T15:50:02.606Z,25.2
2024-01-12T15:51:19.712Z,25.6
2024-01-12T15:52:35.833Z,25.3
2024-01-12T15:53:52.938Z,26
2024-01-12T15:55:10.043Z,26.8
2024-01-12T15:56:27.148Z,25.9
2024-01-12T15:57:44.253Z,24.7
2024-01-12T15:59:01.358Z,23.6
2024-01-12T16:00:18.463Z,26.1
2024-01-12T16:01:35.569Z,24.1
2024-01-12T16:02:52.674Z,25
2024-01-12T16:04:09.779Z,24.6
2024-01-12T16:05:26.884Z,23.2
2024-01-12T16:06:43.990Z,24
2024-01-12T16:08:01.095Z,23.7
2024-01-12T16:09:17.216Z,25.6
2024-01-12T16:10:34.322Z,24.7
2024-01-12T16:11:51.427Z,25.8
2024-01-12T16:13:08.532Z,24.9
2024-01-12T16:14:25.638Z,24.1
2024-01-12T16:15:42.743Z,25.8
2024-01-12T16:16:59.848Z,24.6
2024-01-12T16:18:16.953Z,24.6
2024-01-12T16:19:34.058Z,25.3
2024-01-12T16:20:51.164Z,25.2
2024-01-12T16:22:08.269Z,24
2024-01-12T16:23:25.374Z,23.7
2024-01-12T16:24:42.480Z,25.8
2024-01-12T16:25:58.601Z,25.3
2024-01-12T16:27:15.706Z,25.3
2024-01-12T16:28:32.811Z,27.9
2024-01-12T16:29:49.917Z,27
2024-01-12T16:31:07.022Z,26.4
2024-01-12T16:32:24.127Z,27
2024-01-12T16:33:41.232Z,27.2
2024-01-12T16:34:58.338Z,27.8
2024-01-12T16:36:15.444Z,26.6
2024-01-12T16:37:32.549Z,26.1
2024-01-12T16:38:49.654Z,26.6
2024-01-12T16:40:06.759Z,27.6
2024-01-12T16:41:23.865Z,27.6
2024-01-12T16:42:39.986Z,24.7
2024-01-12T16:43:57.092Z,26.7
2024-01-12T16:45:14.197Z,27.3
2024-01-12T16:46:31.302Z,25.3
2024-01-12T16:47:48.408Z,26.9
2024-01-12T16:49:05.513Z,26.8
2024-01-12T16:50:22.618Z,26.8
2024-01-12T16:52:56.828Z,27.9
2024-01-12T16:54:13.934Z,27.8
2024-01-12T16:55:31.039Z,28.1
2024-01-12T16:56:48.144Z,27
2024-01-12T16:58:05.249Z,27.7
2024-01-12T16:59:21.370Z,28.2
2024-01-12T17:00:38.476Z,28.3
2024-01-12T17:01:55.581Z,27.1
2024-01-12T17:03:12.686Z,28.8
2024-01-12T17:04:29.791Z,29.7
2024-01-12T17:05:46.896Z,29.1
2024-01-12T17:07:03.017Z,27.3
2024-01-12T17:08:20.123Z,26.3
2024-01-12T17:09:37.228Z,29.5
2024-01-12T17:10:54.333Z,29.1
2024-01-12T17:12:11.439Z,30.1
2024-01-12T17:13:28.544Z,29